createdAt,value
2017-12-06T00:01:40.578Z,11.33
2017-12-06T00:04:08.092Z,12.43
2017-12-06T00:06:35.594Z,11.97
2017-12-06T00:09:03.091Z,11.63
2017-12-06T00:11:30.609Z,12.40
2017-12-06T00:14:03.710Z,12.10
2017-12-06T00:16:31.222Z,12.73
2017-12-06T00:18:58.729Z,12.70
2017-12-06T00:21:26.220Z,12.50
2017-12-06T00:23:53.712Z,12.27
2017-12-06T00:26:21.330Z,12.13
2017-12-06T00:28:48.821Z,12.60
2017-12-06T00:31:16.306Z,12.50
2017-12-06T00:33:43.806Z,12.67
2017-12-06T00:36:11.288Z,12.47
2017-12-06T00:38:38.777Z,11.60
2017-12-06T00:41:06.269Z,12.50
2017-12-06T00:43:33.752Z,11.60
2017-12-06T00:46:01.306Z,12.67
2017-12-06T00:48:28.788Z,11.40
2017-12-06T00:50:56.291Z,12.10
2017-12-06T00:53:23.831Z,12.77
2017-12-06T00:55:51.328Z,12.30
2017-12-06T00:58:18.838Z,12.10
2017-12-06T01:00:46.337Z,12.30
2017-12-06T01:03:13.833Z,12.70
2017-12-06T01:05:41.351Z,10.97
2017-12-06T01:08:08.870Z,11.70
2017-12-06T01:10:36.393Z,11.43
2017-12-06T01:13:03.881Z,11.10
2017-12-06T01:15:31.373Z,11.17
2017-12-06T01:17:58.887Z,10.70
2017-12-06T01:20:26.390Z,10.60
2017-12-06T01:22:54.084Z,11.20
2017-12-06T01:25:21.593Z,11.93
2017-12-06T01:27:49.092Z,11.60
2017-12-06T01:30:16.626Z,11.63
2017-12-06T01:32:44.125Z,11.40
2017-12-06T01:35:11.617Z,11.27
2017-12-06T01:37:39.167Z,11.07
2017-12-06T01:40:06.672Z,11.03
2017-12-06T01:42:34.179Z,11.87
2017-12-06T01:45:01.678Z,12.50
2017-12-06T01:47:29.192Z,10.30
2017-12-06T01:49:56.693Z,11.90
2017-12-06T01:52:24.191Z,10.60
2017-12-06T01:54:51.694Z,11.13
2017-12-06T01:57:19.224Z,11.00
2017-12-06T01:59:46.715Z,11.60
2017-12-06T02:02:14.224Z,11.40
2017-12-06T02:04:41.738Z,11.90
2017-12-06T02:07:09.238Z,11.80
2017-12-06T02:09:36.737Z,12.50
2017-12-06T02:12:04.251Z,10.70
2017-12-06T02:14:31.745Z,10.73
2017-12-06T02:16:59.247Z,11.50
2017-12-06T02:19:26.736Z,9.40
2017-12-06T02:21:54.230Z,10.50
2017-12-06T02:24:21.724Z,10.50
2017-12-06T02:26:49.242Z,11.87
2017-12-06T02:29:16.742Z,11.60
2017-12-06T02:31:44.243Z,11.33
2017-12-06T02:34:11.742Z,11.20
2017-12-06T02:36:39.259Z,10.03
2017-12-06T02:39:06.756Z,11.90
2017-12-06T02:41:46.120Z,11.57
2017-12-06T02:44:25.507Z,11.13
2017-12-06T02:46:53.006Z,11.37
2017-12-06T02:49:20.508Z,10.70
2017-12-06T02:51:48.023Z,10.80
2017-12-06T02:54:15.543Z,10.30
2017-12-06T02:56:43.053Z,10.20
2017-12-06T02:59:10.580Z,10.20
2017-12-06T03:01:38.112Z,10.30
2017-12-06T03:04:05.611Z,9.30
2017-12-06T03:06:33.113Z,10.60
2017-12-06T03:09:00.597Z,9.17
2017-12-06T03:11:28.096Z,9.47
2017-12-06T03:13:55.586Z,11.13
2017-12-06T03:16:23.563Z,10.83
2017-12-06T03:18:51.056Z,9.90
2017-12-06T03:21:18.570Z,11.13
2017-12-06T03:23:46.077Z,9.40
2017-12-06T03:26:13.606Z,10.10
2017-12-06T03:28:41.095Z,9.00
2017-12-06T03:31:08.614Z,10.23
2017-12-06T03:33:36.136Z,10.17
2017-12-06T03:36:03.633Z,10.57
2017-12-06T03:38:31.167Z,10.20
2017-12-06T03:40:58.665Z,10.07
2017-12-06T03:43:26.165Z,9.23
2017-12-06T03:45:53.661Z,9.80
2017-12-06T03:48:21.150Z,9.40
2017-12-06T03:50:48.642Z,10.13
2017-12-06T03:53:16.158Z,9.80
2017-12-06T03:55:43.649Z,10.10
2017-12-06T03:58:11.166Z,11.60
2017-12-06T04:00:38.659Z,10.10
2017-12-06T04:03:06.140Z,8.70
2017-12-06T04:05:33.620Z,9.10
2017-12-06T04:08:01.112Z,8.70
2017-12-06T04:10:28.614Z,8.30
2017-12-06T04:12:56.100Z,7.93
2017-12-06T04:15:23.591Z,9.53
2017-12-06T04:17:51.173Z,8.07
2017-12-06T04:20:18.672Z,9.20
2017-12-06T04:22:46.168Z,10.17
2017-12-06T04:25:13.653Z,9.77
2017-12-06T04:27:41.141Z,9.87
2017-12-06T04:30:08.656Z,9.83
2017-12-06T04:32:36.159Z,9.07
2017-12-06T04:35:03.654Z,8.43
2017-12-06T04:37:31.149Z,9.10
2017-12-06T04:39:58.648Z,8.10
2017-12-06T04:42:26.137Z,8.30
2017-12-06T04:44:53.617Z,8.67
2017-12-06T04:47:21.122Z,10.10
2017-12-06T04:49:48.625Z,10.20
2017-12-06T04:52:16.139Z,9.10
2017-12-06T04:54:43.642Z,10.10
2017-12-06T04:57:11.163Z,8.60
2017-12-06T04:59:38.665Z,9.17
2017-12-06T05:02:06.159Z,9.43
2017-12-06T05:04:33.646Z,9.43
2017-12-06T05:07:01.124Z,10.33
2017-12-06T05:09:28.623Z,8.40
2017-12-06T05:11:56.108Z,8.60
2017-12-06T05:14:23.609Z,8.97
2017-12-06T05:16:51.135Z,8.70
2017-12-06T05:19:18.640Z,9.03
2017-12-06T05:21:46.146Z,9.50
2017-12-06T05:24:13.643Z,9.27
2017-12-06T05:26:41.135Z,9.50
2017-12-06T05:29:08.617Z,9.27
2017-12-06T05:31:36.109Z,9.50
2017-12-06T05:34:03.611Z,8.23
2017-12-06T05:36:31.116Z,9.53
2017-12-06T05:38:58.622Z,10.43
2017-12-06T05:41:26.110Z,10.03
2017-12-06T05:43:53.616Z,9.40
2017-12-06T05:46:21.112Z,9.90
2017-12-06T05:48:48.602Z,9.63
2017-12-06T05:51:16.087Z,8.80
2017-12-06T05:53:43.587Z,9.43
2017-12-06T05:56:11.086Z,9.30
2017-12-06T05:58:38.574Z,9.53
2017-12-06T06:01:06.100Z,9.70
2017-12-06T06:03:33.596Z,10.00
2017-12-06T06:06:01.103Z,12.47
2017-12-06T06:08:28.621Z,9.67
2017-12-06T06:10:56.100Z,11.10
2017-12-06T06:13:23.601Z,11.97
2017-12-06T06:15:51.158Z,10.63
2017-12-06T06:18:18.661Z,11.03
2017-12-06T06:20:46.185Z,11.13
2017-12-06T06:23:13.705Z,10.70
2017-12-06T06:25:41.228Z,9.77
2017-12-06T06:28:08.729Z,9.67
2017-12-06T06:30:36.254Z,10.50
2017-12-06T06:33:03.748Z,9.93
2017-12-06T06:35:31.252Z,10.33
2017-12-06T06:37:58.742Z,9.50
2017-12-06T06:40:26.231Z,9.23
2017-12-06T06:42:53.712Z,8.97
2017-12-06T06:45:21.224Z,9.30
2017-12-06T06:47:48.720Z,9.77
2017-12-06T06:50:16.233Z,9.10
2017-12-06T06:52:43.745Z,9.13
2017-12-06T06:55:11.285Z,9.67
2017-12-06T06:57:38.932Z,9.60
2017-12-06T07:00:06.433Z,9.60
2017-12-06T07:02:33.936Z,10.67
2017-12-06T07:05:01.449Z,9.57
2017-12-06T07:07:28.948Z,9.80
2017-12-06T07:09:56.435Z,9.33
2017-12-06T07:12:23.925Z,10.03
2017-12-06T07:14:51.446Z,11.23
2017-12-06T07:17:18.932Z,18.77
2017-12-06T07:19:49.260Z,11.93
2017-12-06T07:22:16.759Z,11.47
2017-12-06T07:24:44.259Z,10.97
2017-12-06T07:27:11.748Z,12.00
2017-12-06T07:29:39.260Z,22.87
2017-12-06T07:32:06.812Z,12.37
2017-12-06T07:34:34.300Z,10.77
2017-12-06T07:37:01.811Z,10.40
2017-12-06T07:39:29.302Z,10.43
2017-12-06T07:41:56.821Z,11.07
2017-12-06T07:44:24.313Z,10.97
2017-12-06T07:46:51.826Z,11.33
2017-12-06T07:49:19.336Z,11.87
2017-12-06T07:51:46.893Z,10.70
2017-12-06T07:54:14.405Z,26.80
2017-12-06T07:56:41.917Z,12.77
2017-12-06T07:59:09.439Z,11.83
2017-12-06T08:01:36.944Z,10.40
2017-12-06T08:04:04.439Z,11.47
2017-12-06T08:06:31.948Z,10.30
2017-12-06T08:08:59.468Z,10.63
2017-12-06T08:11:26.957Z,10.00
2017-12-06T08:13:54.460Z,10.93
2017-12-06T08:16:21.988Z,14.40
2017-12-06T08:18:49.477Z,22.37
2017-12-06T08:21:16.968Z,10.17
2017-12-06T08:23:44.471Z,9.93
2017-12-06T08:26:11.969Z,11.60
2017-12-06T08:28:39.464Z,10.70
2017-12-06T08:31:07.003Z,11.30
2017-12-06T08:33:34.493Z,9.73
2017-12-06T08:36:01.977Z,9.73
2017-12-06T08:38:29.475Z,11.60
2017-12-06T08:40:56.969Z,11.57
2017-12-06T08:43:24.476Z,12.70
2017-12-06T08:45:51.981Z,12.63
2017-12-06T08:48:19.476Z,12.13
2017-12-06T08:50:46.965Z,11.00
2017-12-06T08:53:14.465Z,11.33
2017-12-06T08:55:41.962Z,10.10
2017-12-06T08:58:09.456Z,10.23
2017-12-06T09:00:36.938Z,9.83
2017-12-06T09:03:04.485Z,8.60
2017-12-06T09:05:31.988Z,9.70
2017-12-06T09:07:59.485Z,8.90
2017-12-06T09:10:27.009Z,8.73
2017-12-06T09:12:54.547Z,9.60
2017-12-06T09:15:22.043Z,8.97
2017-12-06T09:17:49.571Z,7.93
2017-12-06T09:20:17.055Z,8.77
2017-12-06T09:22:44.550Z,8.50
2017-12-06T09:25:12.040Z,7.73
2017-12-06T09:27:39.567Z,7.80
2017-12-06T09:30:07.057Z,7.23
2017-12-06T09:32:34.540Z,7.90
2017-12-06T09:35:02.084Z,7.03
2017-12-06T09:37:29.599Z,6.67
2017-12-06T09:39:57.085Z,7.80
2017-12-06T09:42:24.570Z,6.50
2017-12-06T09:44:52.049Z,6.60
2017-12-06T09:47:19.552Z,5.83
2017-12-06T09:49:47.037Z,6.83
2017-12-06T09:52:14.516Z,5.97
2017-12-06T09:54:42.009Z,5.47
2017-12-06T09:57:09.501Z,5.07
2017-12-06T09:59:36.989Z,6.20
2017-12-06T10:02:04.473Z,5.77
2017-12-06T10:04:31.976Z,5.30
2017-12-06T10:06:59.506Z,5.83
2017-12-06T10:09:27.014Z,5.80
2017-12-06T10:11:54.499Z,5.83
2017-12-06T10:14:21.978Z,6.07
2017-12-06T10:16:49.481Z,5.73
2017-12-06T10:19:17.050Z,5.70
2017-12-06T10:21:44.551Z,5.33
2017-12-06T10:24:12.156Z,5.73
2017-12-06T10:26:39.669Z,6.13
2017-12-06T10:29:07.170Z,6.10
2017-12-06T10:31:34.673Z,5.60
2017-12-06T10:34:02.180Z,5.97
2017-12-06T10:36:29.674Z,5.30
2017-12-06T10:38:57.160Z,7.13
2017-12-06T10:41:24.659Z,6.80
2017-12-06T10:43:52.161Z,4.93
2017-12-06T10:46:19.641Z,6.00
2017-12-06T10:48:47.132Z,5.57
2017-12-06T10:51:14.620Z,6.03
2017-12-06T10:53:42.152Z,7.07
2017-12-06T10:56:09.634Z,5.50
2017-12-06T10:58:37.112Z,5.80
2017-12-06T11:01:04.613Z,5.70
2017-12-06T11:03:32.105Z,6.17
2017-12-06T11:05:59.634Z,5.20
2017-12-06T11:08:27.172Z,6.40
2017-12-06T11:10:54.776Z,5.63
2017-12-06T11:13:22.252Z,5.13
2017-12-06T11:15:49.793Z,5.90
2017-12-06T11:18:17.286Z,5.67
2017-12-06T11:20:44.776Z,5.60
2017-12-06T11:23:12.269Z,5.83
2017-12-06T11:25:39.786Z,4.90
2017-12-06T11:28:07.274Z,6.00
2017-12-06T11:30:34.775Z,4.67
2017-12-06T11:33:02.275Z,4.57
2017-12-06T11:35:29.786Z,4.53
2017-12-06T11:37:57.323Z,4.77
2017-12-06T11:40:24.822Z,4.27
2017-12-06T11:42:52.312Z,4.93
2017-12-06T11:45:19.810Z,4.47
2017-12-06T11:47:47.297Z,4.60
2017-12-06T11:50:14.784Z,5.23
2017-12-06T11:52:42.281Z,4.60
2017-12-06T11:55:09.786Z,4.50
2017-12-06T11:57:37.272Z,4.40
2017-12-06T12:00:04.757Z,5.00
2017-12-06T12:02:32.261Z,5.37
2017-12-06T12:04:59.824Z,5.77
2017-12-06T12:07:27.389Z,4.87
2017-12-06T12:09:54.878Z,5.13
2017-12-06T12:12:22.393Z,4.30
2017-12-06T12:14:49.934Z,5.27
2017-12-06T12:17:17.444Z,5.73
2017-12-06T12:19:44.940Z,5.37
2017-12-06T12:22:12.428Z,6.07
2017-12-06T12:24:39.908Z,5.40
2017-12-06T12:27:07.407Z,5.13
2017-12-06T12:29:34.903Z,8.37
2017-12-06T12:32:02.400Z,5.00
2017-12-06T12:34:29.900Z,5.33
2017-12-06T12:36:57.397Z,4.60
2017-12-06T12:39:24.893Z,4.87
2017-12-06T12:41:52.369Z,4.83
2017-12-06T12:44:19.860Z,4.87
2017-12-06T12:46:47.359Z,6.07
2017-12-06T12:49:14.881Z,5.70
2017-12-06T12:51:42.365Z,5.10
2017-12-06T12:54:09.891Z,6.00
2017-12-06T12:56:37.369Z,5.60
2017-12-06T12:59:04.857Z,6.53
2017-12-06T13:01:32.345Z,6.80
2017-12-06T13:04:00.009Z,5.43
2017-12-06T13:06:27.516Z,6.90
2017-12-06T13:08:55.013Z,5.40
2017-12-06T13:11:23.125Z,5.23
2017-12-06T13:13:50.625Z,4.63
2017-12-06T13:16:18.130Z,5.13
2017-12-06T13:18:45.615Z,5.67
2017-12-06T13:21:13.097Z,6.17
2017-12-06T13:23:40.597Z,4.70
2017-12-06T13:26:08.113Z,4.77
2017-12-06T13:28:35.723Z,5.20
2017-12-06T13:31:03.257Z,4.30
2017-12-06T13:33:30.736Z,4.30
2017-12-06T13:35:58.224Z,5.43
2017-12-06T13:38:25.709Z,5.10
2017-12-06T13:40:53.225Z,5.00
2017-12-06T13:43:20.701Z,4.40
2017-12-06T13:45:48.183Z,8.47
2017-12-06T13:48:15.682Z,7.43
2017-12-06T13:50:43.198Z,4.80
2017-12-06T13:53:10.709Z,6.90
2017-12-06T13:55:38.210Z,5.67
2017-12-06T13:58:05.704Z,5.80
2017-12-06T14:00:33.381Z,6.60
2017-12-06T14:03:00.917Z,9.33
2017-12-06T14:05:28.413Z,7.77
2017-12-06T14:07:55.989Z,12.70
2017-12-06T14:10:23.548Z,9.27
2017-12-06T14:12:51.037Z,9.30
2017-12-06T14:15:18.524Z,6.80
2017-12-06T14:17:46.027Z,6.53
2017-12-06T14:20:13.516Z,5.70
2017-12-06T14:22:41.033Z,5.43
2017-12-06T14:25:08.513Z,4.80
2017-12-06T14:27:36.002Z,7.30
2017-12-06T14:30:03.498Z,6.67
2017-12-06T14:32:30.980Z,7.80
2017-12-06T14:34:58.509Z,7.93
2017-12-06T14:37:26.000Z,8.00
2017-12-06T14:39:53.613Z,8.43
2017-12-06T14:42:21.157Z,6.43
2017-12-06T14:44:48.644Z,7.43
2017-12-06T14:47:16.151Z,4.67
2017-12-06T14:49:43.679Z,5.43
2017-12-06T14:52:11.204Z,5.37
2017-12-06T14:54:38.701Z,4.73
2017-12-06T14:57:06.222Z,5.70
2017-12-06T14:59:33.721Z,4.90
2017-12-06T15:02:01.210Z,4.23
2017-12-06T15:04:28.693Z,5.53
2017-12-06T15:06:56.193Z,5.27
2017-12-06T15:09:23.700Z,6.20
2017-12-06T15:11:52.290Z,5.90
2017-12-06T15:14:19.785Z,8.47
2017-12-06T15:16:47.277Z,6.47
2017-12-06T15:19:14.770Z,6.63
2017-12-06T15:21:42.360Z,5.00
2017-12-06T15:24:09.865Z,4.97
2017-12-06T15:26:37.358Z,4.10
2017-12-06T15:29:04.838Z,4.73
2017-12-06T15:31:32.371Z,4.57
2017-12-06T15:33:59.860Z,4.77
2017-12-06T15:36:27.378Z,4.80
2017-12-06T15:38:54.872Z,4.30
2017-12-06T15:41:22.401Z,6.90
2017-12-06T15:43:49.988Z,5.30
2017-12-06T15:46:17.492Z,5.03
2017-12-06T15:48:45.134Z,5.37
2017-12-06T15:51:12.636Z,8.33
2017-12-06T15:53:40.230Z,4.80
2017-12-06T15:56:07.719Z,5.50
2017-12-06T15:58:35.199Z,4.90
2017-12-06T16:01:02.688Z,3.83
2017-12-06T16:03:30.173Z,3.20
2017-12-06T16:05:57.685Z,3.10
2017-12-06T16:08:25.182Z,3.20
2017-12-06T16:10:52.660Z,4.13
2017-12-06T16:13:20.191Z,8.63
2017-12-06T16:15:47.897Z,13.20
2017-12-06T16:18:15.419Z,8.60
2017-12-06T16:20:42.936Z,3.77
2017-12-06T16:23:10.465Z,6.43
2017-12-06T16:25:38.000Z,9.93
2017-12-06T16:28:05.536Z,5.93
2017-12-06T16:30:33.038Z,8.20
2017-12-06T16:33:00.589Z,7.60
2017-12-06T16:35:39.970Z,5.97
2017-12-06T16:38:07.511Z,5.90
2017-12-06T16:40:35.018Z,5.57
2017-12-06T16:43:02.511Z,4.60
2017-12-06T16:45:31.339Z,5.90
2017-12-06T16:47:58.852Z,5.33
2017-12-06T16:50:26.359Z,5.50
2017-12-06T16:52:53.853Z,4.97
2017-12-06T16:55:21.352Z,5.40
2017-12-06T16:57:48.842Z,5.80
2017-12-06T17:00:16.335Z,5.10
2017-12-06T17:02:43.845Z,5.03
2017-12-06T17:05:11.342Z,5.57
2017-12-06T17:07:38.945Z,5.27
2017-12-06T17:10:06.462Z,5.67
2017-12-06T17:12:34.009Z,5.50
2017-12-06T17:15:01.546Z,5.80
2017-12-06T17:17:29.156Z,5.60
2017-12-06T17:19:56.697Z,5.97
2017-12-06T17:22:24.273Z,5.60
2017-12-06T17:24:51.758Z,5.60
2017-12-06T17:27:19.265Z,5.47
2017-12-06T17:29:58.825Z,5.87
2017-12-06T17:32:26.336Z,5.57
2017-12-06T17:34:53.829Z,5.30
2017-12-06T17:37:21.345Z,5.83
2017-12-06T17:39:48.838Z,5.70
2017-12-06T17:42:16.376Z,5.67
2017-12-06T17:44:43.870Z,6.27
2017-12-06T17:47:11.362Z,5.20
2017-12-06T17:49:38.846Z,5.97
2017-12-06T17:52:06.346Z,6.87
2017-12-06T17:54:33.885Z,6.00
2017-12-06T17:57:01.375Z,5.90
2017-12-06T17:59:28.895Z,6.47
2017-12-06T18:01:56.392Z,6.07
2017-12-06T18:04:23.909Z,7.10
2017-12-06T18:06:51.417Z,6.97
2017-12-06T18:09:18.933Z,5.80
2017-12-06T18:11:46.444Z,7.37
2017-12-06T18:14:14.046Z,7.80
2017-12-06T18:16:41.558Z,6.47
2017-12-06T18:19:09.089Z,6.10
2017-12-06T18:21:36.612Z,6.83
2017-12-06T18:24:04.133Z,6.73
2017-12-06T18:26:31.667Z,6.63
2017-12-06T18:28:59.174Z,7.00
2017-12-06T18:31:26.710Z,7.47
2017-12-06T18:33:54.212Z,7.07
2017-12-06T18:36:21.742Z,7.50
2017-12-06T18:38:49.251Z,7.90
2017-12-06T18:41:16.859Z,8.07
2017-12-06T18:43:44.346Z,6.80
2017-12-06T18:46:11.848Z,7.23
2017-12-06T18:48:39.365Z,6.23
2017-12-06T18:51:06.862Z,7.93
2017-12-06T18:53:34.370Z,6.40
2017-12-06T18:56:01.891Z,6.60
2017-12-06T18:58:29.390Z,6.20
2017-12-06T19:00:56.876Z,6.63
2017-12-06T19:03:24.390Z,5.47
2017-12-06T19:05:51.880Z,5.10
2017-12-06T19:08:19.382Z,5.50
2017-12-06T19:10:46.877Z,5.50
2017-12-06T19:13:14.387Z,5.30
2017-12-06T19:15:41.939Z,5.30
2017-12-06T19:18:09.451Z,6.07
2017-12-06T19:20:36.965Z,5.80
2017-12-06T19:23:04.483Z,5.87
2017-12-06T19:25:32.111Z,6.60
2017-12-06T19:27:59.627Z,6.50
2017-12-06T19:30:27.141Z,6.60
2017-12-06T19:32:54.655Z,6.10
2017-12-06T19:35:22.169Z,6.57
2017-12-06T19:37:49.694Z,6.13
2017-12-06T19:40:17.200Z,6.03
2017-12-06T19:42:44.701Z,6.30
2017-12-06T19:45:12.271Z,6.60
2017-12-06T19:47:39.794Z,6.07
2017-12-06T19:50:07.319Z,6.50
2017-12-06T19:52:34.811Z,6.90
2017-12-06T19:55:02.337Z,7.07
2017-12-06T19:57:29.866Z,6.63
2017-12-06T19:59:57.367Z,7.37
2017-12-06T20:02:24.928Z,7.70
2017-12-06T20:04:52.467Z,5.90
2017-12-06T20:07:19.960Z,7.40
2017-12-06T20:09:47.729Z,6.97
2017-12-06T20:12:15.309Z,6.27
2017-12-06T20:14:42.862Z,7.30
2017-12-06T20:17:10.425Z,6.50
2017-12-06T20:19:37.960Z,7.30
2017-12-06T20:22:05.457Z,7.00
2017-12-06T20:24:33.008Z,6.83
2017-12-06T20:27:00.527Z,7.23
2017-12-06T20:29:28.102Z,7.07
2017-12-06T20:31:55.819Z,7.80
2017-12-06T20:34:23.333Z,7.40
2017-12-06T20:36:51.020Z,8.00
2017-12-06T20:39:18.525Z,7.80
2017-12-06T20:41:46.050Z,7.70
2017-12-06T20:44:13.561Z,7.90
2017-12-06T20:46:41.249Z,7.60
2017-12-06T20:49:08.817Z,7.57
2017-12-06T20:51:37.083Z,7.73
2017-12-06T20:54:04.700Z,7.60
2017-12-06T20:56:32.240Z,8.17
2017-12-06T20:59:00.060Z,7.90
2017-12-06T21:01:27.611Z,8.20
2017-12-06T21:03:55.097Z,8.30
2017-12-06T21:06:22.842Z,9.20
2017-12-06T21:08:50.479Z,8.50
2017-12-06T21:11:17.997Z,9.00
2017-12-06T21:13:45.516Z,9.47
2017-12-06T21:16:13.024Z,9.97
2017-12-06T21:18:40.507Z,9.83
2017-12-06T21:21:08.003Z,9.33
2017-12-06T21:23:35.570Z,9.93
2017-12-06T21:26:03.086Z,9.57
2017-12-06T21:28:30.627Z,9.90
2017-12-06T21:31:00.137Z,10.67
2017-12-06T21:33:27.781Z,10.73
2017-12-06T21:35:55.294Z,9.80
2017-12-06T21:38:22.922Z,10.27
2017-12-06T21:40:50.434Z,9.33
2017-12-06T21:43:17.934Z,9.37
2017-12-06T21:45:45.460Z,9.40
2017-12-06T21:48:12.983Z,10.97
2017-12-06T21:50:40.520Z,11.23
2017-12-06T21:53:08.216Z,10.40
2017-12-06T21:55:35.743Z,10.77
2017-12-06T21:58:03.261Z,10.17
2017-12-06T22:00:30.861Z,9.10
2017-12-06T22:02:58.370Z,11.07
2017-12-06T22:05:26.013Z,10.30
2017-12-06T22:07:53.603Z,10.90
2017-12-06T22:10:21.143Z,10.43
2017-12-06T22:12:48.793Z,12.00
2017-12-06T22:15:16.391Z,12.17
2017-12-06T22:17:43.910Z,12.93
2017-12-06T22:20:11.412Z,11.57
2017-12-06T22:22:38.922Z,10.93
2017-12-06T22:25:06.434Z,11.23
2017-12-06T22:27:33.922Z,12.70
2017-12-06T22:30:01.410Z,13.77
2017-12-06T22:32:28.925Z,11.67
2017-12-06T22:34:56.425Z,12.33
2017-12-06T22:37:23.922Z,12.20
2017-12-06T22:39:51.410Z,11.10
2017-12-06T22:42:18.984Z,11.77
2017-12-06T22:44:58.490Z,10.53
2017-12-06T22:47:26.172Z,12.17
2017-12-06T22:49:53.838Z,12.40
2017-12-06T22:52:21.415Z,12.80
2017-12-06T22:54:48.933Z,12.67
2017-12-06T22:57:16.434Z,11.83
2017-12-06T22:59:43.918Z,12.63
2017-12-06T23:02:11.473Z,11.50
2017-12-06T23:04:39.011Z,10.90
2017-12-06T23:07:07.382Z,10.50
2017-12-06T23:09:34.899Z,11.10
2017-12-06T23:12:02.401Z,11.47
2017-12-06T23:14:29.897Z,10.43
2017-12-06T23:16:57.414Z,11.50
2017-12-06T23:19:24.905Z,12.40
2017-12-06T23:21:52.433Z,12.03
2017-12-06T23:24:19.928Z,10.57
2017-12-06T23:26:47.436Z,12.20
2017-12-06T23:29:15.057Z,11.00
2017-12-06T23:31:42.557Z,11.93
2017-12-06T23:34:10.068Z,11.90
2017-12-06T23:36:37.552Z,12.23
2017-12-06T23:39:05.084Z,12.60
2017-12-06T23:41:32.601Z,12.40
2017-12-06T23:44:00.243Z,11.53
2017-12-06T23:46:27.737Z,12.03
2017-12-06T23:48:55.227Z,12.00
2017-12-06T23:51:22.755Z,12.37
2017-12-06T23:53:50.258Z,12.73
2017-12-06T23:56:17.793Z,11.53
2017-12-06T23:58:45.299Z,12.90
